Time;durP1;ratioP1;P1;durP2;ratioP2;P2;SDS_P1;SDS_P2;PMS_P1;PMS_P2;Temp;Humidity;BMP_temperature;BMP_pressure;BME280_temperature;BME280_humidity;BME280_pressure;Samples;Min_cycle;Max_cycle;Signal;HPM_P1;HPM_P2
2022/04/15 00:00:08;;;;;;;339.67;126.72;;;;;;;11.81;56.91;100200.31;417468;23;1220;-71
2022/04/15 00:00:20;;;;;;;341.48;127.72;;;;;;;11.82;57.07;100202.03;415659;23;860;-71
2022/04/15 00:00:31;;;;;;;341.33;127.35;;;;;;;11.82;56.44;100202.88;417804;23;908;-71
2022/04/15 00:00:42;;;;;;;340.50;127.32;;;;;;;11.82;56.31;100196.78;417458;23;1299;-71
2022/04/15 00:00:56;;;;;;;340.87;129.50;;;;;;;11.81;56.17;100202.94;419613;23;830;-71
2022/04/15 00:01:06;;;;;;;341.52;128.80;;;;;;;11.77;56.63;100207.44;419379;23;995;-71
2022/04/15 00:01:17;;;;;;;340.77;129.57;;;;;;;11.79;56.33;100197.75;419707;23;839;-71
2022/04/15 00:01:27;;;;;;;338.47;127.47;;;;;;;11.78;56.64;100205.66;421674;23;929;-71
2022/04/15 00:01:38;;;;;;;339.02;128.35;;;;;;;11.77;56.45;100204.81;417686;23;987;-71
2022/04/15 00:01:48;;;;;;;338.83;128.10;;;;;;;11.79;56.35;100203.00;415760;23;1068;-70
2022/04/15 00:01:59;;;;;;;338.95;130.07;;;;;;;11.78;56.63;100198.66;417808;23;862;-70
2022/04/15 00:02:09;;;;;;;338.37;130.03;;;;;;;11.79;56.76;100203.00;417660;23;1317;-70
2022/04/15 00:02:20;;;;;;;339.77;131.27;;;;;;;11.79;57.03;100202.13;419148;23;852;-70
2022/04/15 00:02:30;;;;;;;341.57;130.73;;;;;;;11.77;56.79;100193.47;419472;23;1361;-70
2022/04/15 00:02:40;;;;;;;342.40;130.75;;;;;;;11.80;56.63;100199.47;417419;23;1282;-70
2022/04/15 00:02:51;;;;;;;341.27;129.83;;;;;;;11.83;56.71;100203.75;415795;23;769;-70
2022/04/15 00:03:01;;;;;;;340.45;129.52;;;;;;;11.82;56.76;100199.41;417586;23;1190;-70
2022/04/15 00:03:12;;;;;;;338.47;128.43;;;;;;;11.81;56.43;100201.16;413651;23;1245;-70
2022/04/15 00:03:22;;;;;;;341.33;129.45;;;;;;;11.83;56.54;100198.50;413582;23;853;-70
2022/04/15 00:03:32;;;;;;;344.07;131.27;;;;;;;11.84;56.52;100205.44;413880;23;837;-70
2022/04/15 00:03:43;;;;;;;346.08;133.75;;;;;;;11.84;56.88;100200.19;415611;23;1240;-70
2022/04/15 00:03:56;;;;;;;345.93;134.53;;;;;;;11.85;56.88;100201.91;417705;23;820;-70
2022/04/15 00:04:06;;;;;;;345.63;134.05;;;;;;;11.86;56.82;100201.84;417578;23;1077;-70
2022/04/15 00:04:17;;;;;;;344.33;132.95;;;;;;;11.87;57.08;100205.34;419623;23;1335;-70
2022/04/15 00:04:28;;;;;;;342.60;131.93;;;;;;;11.85;56.28;100201.91;419610;23;853;-70
2022/04/15 00:04:38;;;;;;;342.48;130.88;;;;;;;11.84;56.54;100195.81;417659;23;849;-70
2022/04/15 00:04:48;;;;;;;341.80;131.25;;;;;;;11.86;56.33;100203.63;417644;23;801;-70
2022/04/15 00:04:59;;;;;;;341.87;131.30;;;;;;;11.86;56.22;100199.25;415706;23;1149;-70
2022/04/15 00:05:52;;;;;;;343.20;128.75;;;;;;;11.86;56.55;100201.00;415641;23;873;-70
2022/04/15 00:06:08;;;;;;;340.67;127.60;;;;;;;11.84;56.03;100202.81;413611;23;907;-70
2022/04/15 00:06:20;;;;;;;340.27;126.35;;;;;;;11.85;56.06;100204.53;409812;24;1475;-70
2022/04/15 00:06:32;;;;;;;343.02;129.38;;;;;;;11.84;56.01;100201.06;411639;24;903;-70
2022/04/15 00:06:43;;;;;;;343.13;130.60;;;;;;;11.85;56.13;100202.78;413602;23;759;-70
2022/04/15 00:06:54;;;;;;;341.35;129.27;;;;;;;11.86;55.91;100203.63;413791;23;892;-70
2022/04/15 00:07:04;;;;;;;342.87;130.70;;;;;;;11.85;56.08;100202.78;412057;23;1138;-71
2022/04/15 00:07:15;;;;;;;344.45;130.63;;;;;;;11.87;56.28;100200.09;413447;23;1412;-71
2022/04/15 00:07:25;;;;;;;343.63;131.63;;;;;;;11.87;56.28;100206.19;415704;23;1151;-71
2022/04/15 00:07:36;;;;;;;341.63;130.35;;;;;;;11.86;56.29;100198.38;413740;23;919;-71
2022/04/15 00:07:46;;;;;;;342.57;129.53;;;;;;;11.86;56.48;100201.00;415568;23;831;-71
2022/04/15 00:07:57;;;;;;;343.35;129.60;;;;;;;11.88;56.72;100199.19;415706;23;904;-71
2022/04/15 00:08:09;;;;;;;344.00;130.20;;;;;;;11.87;56.37;100200.94;417637;23;800;-71
2022/04/15 00:08:19;;;;;;;344.40;132.07;;;;;;;11.84;55.98;100200.19;415726;23;1507;-71
2022/04/15 00:08:29;;;;;;;342.40;130.73;;;;;;;11.81;55.98;100205.56;417706;23;903;-71
2022/04/15 00:08:40;;;;;;;340.53;128.90;;;;;;;11.76;56.37;100194.34;417505;23;877;-71
2022/04/15 00:08:51;;;;;;;339.10;128.05;;;;;;;11.73;56.22;100195.31;415751;23;877;-71
2022/04/15 00:09:02;;;;;;;341.10;130.57;;;;;;;11.76;56.52;100202.22;417739;23;899;-71
2022/04/15 00:09:13;;;;;;;344.65;132.48;;;;;;;11.75;56.35;100198.72;417437;23;1506;-71
2022/04/15 00:09:23;;;;;;;345.65;131.85;;;;;;;11.74;56.60;100204.03;417594;23;1298;-71
2022/04/15 00:09:35;;;;;;;343.37;129.57;;;;;;;11.75;56.57;100205.75;419762;23;936;-70
2022/04/15 00:09:45;;;;;;;345.13;132.55;;;;;;;11.74;56.72;100193.53;419375;23;1378;-70
2022/04/15 00:09:55;;;;;;;346.10;134.20;;;;;;;11.74;57.08;100201.41;417559;23;1136;-70
2022/04/15 00:10:06;;;;;;;346.65;134.38;;;;;;;11.73;56.80;100212.81;417487;23;1349;-70
2022/04/15 00:10:17;;;;;;;344.38;132.82;;;;;;;11.73;56.97;100199.69;415567;23;1287;-71
2022/04/15 00:10:28;;;;;;;343.47;133.20;;;;;;;11.71;56.76;100204.13;415655;23;904;-70
2022/04/15 00:10:46;;;;;;;342.02;134.77;;;;;;;11.65;56.93;100202.63;415732;23;891;-70
2022/04/15 00:10:57;;;;;;;340.02;131.20;;;;;;;11.68;56.77;100205.13;415957;23;864;-70
2022/04/15 00:11:08;;;;;;;340.65;130.15;;;;;;;11.68;56.60;100201.66;419498;23;1805;-70
2022/04/15 00:11:18;;;;;;;343.52;130.05;;;;;;;11.64;56.37;100204.38;417523;23;1280;-70
2022/04/15 00:11:31;;;;;;;343.53;130.27;;;;;;;11.64;56.51;100203.53;417685;23;861;-70
2022/04/15 00:11:41;;;;;;;342.23;128.90;;;;;;;11.61;56.43;100204.50;417399;23;1593;-71
2022/04/15 00:11:53;;;;;;;339.63;129.20;;;;;;;11.58;56.24;100209.00;419632;23;856;-70
2022/04/15 00:12:10;;;;;;;341.23;129.80;;;;;;;11.57;56.57;100199.41;417123;23;1339;-70
2022/04/15 00:12:28;;;;;;;340.77;129.10;;;;;;;11.60;56.07;100200.16;415609;23;1650;-70
2022/04/15 00:12:39;;;;;;;341.25;127.25;;;;;;;11.63;56.90;100200.06;417584;23;1375;-70
2022/04/15 00:12:49;;;;;;;341.85;127.85;;;;;;;11.64;58.26;100199.16;415647;23;906;-70
2022/04/15 00:13:00;;;;;;;341.77;128.38;;;;;;;11.63;57.45;100202.69;417705;23;921;-70
2022/04/15 00:13:12;;;;;;;343.80;128.30;;;;;;;11.61;57.87;100203.63;419641;23;1222;-70
2022/04/15 00:13:24;;;;;;;344.60;127.15;;;;;;;11.59;57.36;100205.47;417504;23;915;-70
2022/04/15 00:13:35;;;;;;;343.95;127.93;;;;;;;11.60;57.23;100205.41;417700;23;1268;-70
2022/04/15 00:13:46;;;;;;;343.83;128.80;;;;;;;11.60;57.36;100202.78;419696;23;873;-70
2022/04/15 00:13:56;;;;;;;346.58;130.57;;;;;;;11.63;57.11;100207.91;413593;23;834;-70
2022/04/15 00:14:06;;;;;;;345.97;131.00;;;;;;;11.65;57.26;100206.09;415671;23;1508;-70
2022/04/15 00:14:17;;;;;;;343.25;131.07;;;;;;;11.65;57.03;100200.00;419690;23;923;-70
2022/04/15 00:14:27;;;;;;;341.17;131.77;;;;;;;11.69;56.97;100203.38;419676;23;964;-70
2022/04/15 00:14:38;;;;;;;341.30;132.40;;;;;;;11.68;56.56;100196.41;415666;23;925;-71
2022/04/15 00:14:48;;;;;;;342.17;131.27;;;;;;;11.67;56.38;100198.19;419487;23;924;-70
2022/04/15 00:14:59;;;;;;;344.53;131.07;;;;;;;11.68;56.87;100204.28;419486;23;1448;-70
2022/04/15 00:15:09;;;;;;;345.10;129.87;;;;;;;11.68;56.61;100204.28;417734;23;894;-70
2022/04/15 00:15:20;;;;;;;346.58;131.43;;;;;;;11.66;56.62;100201.72;415724;23;1614;-70
2022/04/15 00:15:30;;;;;;;342.67;129.97;;;;;;;11.68;56.79;100199.03;417522;23;1276;-70
2022/04/15 00:15:40;;;;;;;340.50;129.25;;;;;;;11.69;56.85;100206.84;417614;23;861;-70
2022/04/15 00:15:51;;;;;;;341.40;129.33;;;;;;;11.66;57.12;100197.31;419714;23;836;-70
2022/04/15 00:16:05;;;;;;;341.23;129.27;;;;;;;11.70;57.19;100202.47;419620;23;1280;-70
2022/04/15 00:16:15;;;;;;;338.67;127.40;;;;;;;11.69;57.00;100201.59;419808;23;1259;-70
2022/04/15 00:16:26;;;;;;;339.92;129.82;;;;;;;11.70;56.93;100202.47;419485;23;1185;-70
2022/04/15 00:16:36;;;;;;;342.90;131.77;;;;;;;11.68;57.14;100199.91;419657;23;785;-71
2022/04/15 00:16:47;;;;;;;345.73;133.20;;;;;;;11.71;57.08;100202.38;417274;23;1190;-70
2022/04/15 00:16:58;;;;;;;344.42;129.93;;;;;;;11.70;57.14;100195.41;417594;23;794;-70
2022/04/15 00:17:08;;;;;;;342.73;128.00;;;;;;;11.70;57.06;100203.28;415794;23;837;-70
2022/04/15 00:17:19;;;;;;;340.83;127.60;;;;;;;11.70;56.91;100198.03;415511;23;821;-70
2022/04/15 00:17:29;;;;;;;339.60;126.30;;;;;;;11.71;56.56;100198.91;417676;23;1177;-70
2022/04/15 00:17:40;;;;;;;342.33;127.40;;;;;;;11.71;56.54;100204.13;417790;23;904;-70
2022/04/15 00:17:51;;;;;;;343.45;126.65;;;;;;;11.73;56.87;100203.19;419718;23;813;-70
2022/04/15 00:18:01;;;;;;;343.84;128.64;;;;;;;11.72;56.92;100198.84;415613;23;830;-70
2022/04/15 00:18:12;;;;;;;344.57;130.10;;;;;;;11.64;56.88;100204.38;415446;23;1213;-70
2022/04/15 00:18:22;;;;;;;346.30;132.33;;;;;;;11.65;57.27;100198.25;415357;23;900;-70
2022/04/15 00:18:33;;;;;;;345.13;133.02;;;;;;;11.65;57.14;100200.00;417433;23;1913;-70
2022/04/15 00:18:43;;;;;;;345.02;134.57;;;;;;;11.64;57.02;100193.91;417483;23;1607;-70
2022/04/15 00:18:54;;;;;;;344.30;133.87;;;;;;;11.64;57.17;100201.78;417657;23;1269;-70
2022/04/15 00:19:04;;;;;;;344.05;130.05;;;;;;;11.62;57.29;100206.22;417387;23;1056;-70
2022/04/15 00:19:15;;;;;;;343.90;129.57;;;;;;;11.59;57.23;100201.06;417777;23;801;-70
2022/04/15 00:19:25;;;;;;;346.92;131.73;;;;;;;11.61;57.17;100195.78;419592;23;1229;-70
2022/04/15 00:19:36;;;;;;;346.40;132.27;;;;;;;11.62;57.28;100195.72;419653;23;1529;-70
2022/04/15 00:19:47;;;;;;;344.55;130.18;;;;;;;11.58;57.39;100188.88;417584;23;1211;-70
2022/04/15 00:19:57;;;;;;;341.52;129.85;;;;;;;11.59;57.59;100194.97;417576;23;923;-70
2022/04/15 00:20:09;;;;;;;343.27;132.37;;;;;;;11.56;57.40;100195.94;415571;23;793;-70
2022/04/15 00:20:20;;;;;;;344.90;133.43;;;;;;;11.57;57.40;100191.56;417632;23;1285;-70
2022/04/15 00:20:30;;;;;;;344.05;130.95;;;;;;;11.58;57.48;100194.13;421496;23;1368;-70
2022/04/15 00:20:41;;;;;;;343.80;131.48;;;;;;;11.58;57.23;100194.13;419477;23;1216;-70
2022/04/15 00:20:52;;;;;;;342.67;130.87;;;;;;;11.58;57.48;100194.13;421532;23;1177;-70
2022/04/15 00:21:02;;;;;;;343.25;131.23;;;;;;;11.56;57.37;100198.56;419516;23;1197;-70
2022/04/15 00:21:12;;;;;;;344.00;129.10;;;;;;;11.56;56.68;100195.94;417360;23;1456;-70
2022/04/15 00:21:23;;;;;;;347.77;131.00;;;;;;;11.54;57.18;100197.75;417771;23;818;-70
2022/04/15 00:21:33;;;;;;;348.57;131.30;;;;;;;11.59;57.42;100190.59;419346;23;934;-70
2022/04/15 00:21:44;;;;;;;347.55;132.25;;;;;;;11.60;57.30;100191.44;415649;23;828;-70
2022/04/15 00:21:55;;;;;;;344.73;130.85;;;;;;;11.62;57.33;100200.13;415651;23;863;-70
2022/04/15 00:22:05;;;;;;;342.85;129.10;;;;;;;11.61;57.06;100198.41;415577;23;793;-70
2022/04/15 00:22:16;;;;;;;339.83;126.93;;;;;;;11.60;57.06;100192.31;417661;23;1346;-70
2022/04/15 00:22:26;;;;;;;338.15;126.15;;;;;;;11.60;57.13;100196.69;419496;23;1181;-70
2022/04/15 00:22:36;;;;;;;338.93;127.37;;;;;;;11.58;57.21;100194.13;421653;23;890;-70
2022/04/15 00:22:47;;;;;;;340.43;129.33;;;;;;;11.59;57.43;100193.22;421506;23;919;-70
2022/04/15 00:22:58;;;;;;;341.75;130.02;;;;;;;11.58;57.11;100194.13;419621;23;1304;-70
2022/04/15 00:23:10;;;;;;;343.10;128.90;;;;;;;11.57;57.27;100197.66;421595;23;1135;-70
2022/04/15 00:23:23;;;;;;;347.52;130.93;;;;;;;11.56;57.46;100189.84;417564;23;788;-70
2022/04/15 00:23:34;;;;;;;349.20;131.35;;;;;;;11.56;57.74;100197.72;417519;23;1399;-70
2022/04/15 00:23:45;;;;;;;346.70;132.13;;;;;;;11.50;57.44;100196.16;417599;23;1295;-70
2022/04/15 00:23:57;;;;;;;344.80;129.65;;;;;;;11.48;57.52;100187.50;421643;23;757;-70
2022/04/15 00:24:07;;;;;;;342.95;127.95;;;;;;;11.47;57.39;100196.25;423706;23;1160;-70
2022/04/15 00:24:18;;;;;;;344.73;127.85;;;;;;;11.48;57.58;100192.72;421521;23;1331;-70
2022/04/15 00:24:28;;;;;;;344.07;128.37;;;;;;;11.50;57.70;100198.78;415538;23;1498;-70
2022/04/15 00:24:39;;;;;;;347.58;131.45;;;;;;;11.50;57.57;100198.78;415587;23;1308;-71
2022/04/15 00:24:49;;;;;;;344.77;130.73;;;;;;;11.51;57.49;100192.63;419201;23;1307;-70
2022/04/15 00:24:59;;;;;;;343.70;130.60;;;;;;;11.49;57.62;100191.81;419747;23;900;-71
2022/04/15 00:25:10;;;;;;;339.00;127.03;;;;;;;11.48;57.77;100197.97;419374;23;1161;-70
2022/04/15 00:25:21;;;;;;;340.00;127.70;;;;;;;11.47;57.85;100193.63;417761;23;797;-70
2022/04/15 00:25:31;;;;;;;341.23;128.53;;;;;;;11.46;58.34;100189.31;417519;23;1403;-70
2022/04/15 00:25:41;;;;;;;347.13;130.13;;;;;;;11.48;58.29;100192.72;421715;23;824;-70
2022/04/15 00:25:52;;;;;;;349.70;131.97;;;;;;;11.49;58.14;100189.19;421631;23;1026;-70
2022/04/15 00:26:02;;;;;;;349.83;132.45;;;;;;;11.49;58.33;100198.81;419519;23;1194;-70
2022/04/15 00:26:13;;;;;;;344.55;131.25;;;;;;;11.50;58.26;100193.53;415538;23;1075;-70
2022/04/15 00:26:23;;;;;;;343.77;131.30;;;;;;;11.52;57.96;100193.47;415346;23;1198;-70
2022/04/15 00:26:34;;;;;;;343.53;131.50;;;;;;;11.48;57.74;100195.34;417578;23;912;-70
2022/04/15 00:26:44;;;;;;;344.15;133.32;;;;;;;11.52;57.91;100191.72;421561;23;800;-70
2022/04/15 00:26:54;;;;;;;344.63;132.47;;;;;;;11.52;58.14;100189.09;419627;23;784;-70
2022/04/15 00:27:05;;;;;;;345.80;132.52;;;;;;;11.53;57.93;100190.81;417648;23;929;-70
2022/04/15 00:27:15;;;;;;;345.83;131.60;;;;;;;11.50;57.76;100193.53;417765;23;726;-70
2022/04/15 00:27:26;;;;;;;346.40;132.88;;;;;;;11.50;58.03;100190.91;419652;23;983;-70
2022/04/15 00:27:39;;;;;;;345.23;133.77;;;;;;;11.50;58.06;100188.28;419705;23;807;-70
2022/04/15 00:27:50;;;;;;;344.20;132.95;;;;;;;11.50;58.09;100185.66;415538;23;931;-70
2022/04/15 00:28:00;;;;;;;344.70;134.47;;;;;;;11.53;58.32;100182.09;419595;23;1326;-70
2022/04/15 00:28:10;;;;;;;345.20;134.30;;;;;;;11.55;57.94;100194.22;417686;23;833;-70
2022/04/15 00:28:21;;;;;;;346.17;134.47;;;;;;;11.55;58.21;100186.38;417368;23;848;-70
2022/04/15 00:28:31;;;;;;;346.42;133.00;;;;;;;11.53;57.94;100185.56;415516;23;1295;-70
2022/04/15 00:28:42;;;;;;;346.37;133.40;;;;;;;11.52;57.87;100188.25;419472;23;756;-70
2022/04/15 00:28:52;;;;;;;344.10;131.88;;;;;;;11.51;57.80;100189.16;419598;23;848;-70
2022/04/15 00:29:06;;;;;;;343.17;132.77;;;;;;;11.50;57.83;100184.81;417601;23;1250;-70
2022/04/15 00:29:17;;;;;;;343.33;133.13;;;;;;;11.48;57.89;100187.50;419718;23;895;-70
2022/04/15 00:29:28;;;;;;;344.75;133.75;;;;;;;11.45;57.73;100186.75;417822;23;888;-70
2022/04/15 00:29:38;;;;;;;344.45;132.50;;;;;;;11.44;58.04;100192.88;421597;23;1287;-70
2022/04/15 00:29:49;;;;;;;345.53;132.13;;;;;;;11.45;58.29;100187.59;421680;23;860;-70
2022/04/15 00:29:59;;;;;;;343.17;131.25;;;;;;;11.44;57.96;100185.88;419658;23;1397;-70
2022/04/15 00:30:10;;;;;;;343.03;130.60;;;;;;;11.45;58.26;100182.34;417446;23;1333;-70
2022/04/15 00:30:21;;;;;;;342.70;130.05;;;;;;;11.47;58.34;100191.03;419731;23;917;-70
2022/04/15 00:30:31;;;;;;;344.60;131.20;;;;;;;11.50;58.06;100185.66;423466;23;1374;-70
2022/04/15 00:30:42;;;;;;;344.77;131.95;;;;;;;11.48;58.18;100184.88;419483;23;1386;-71
2022/04/15 00:30:53;;;;;;;344.83;134.73;;;;;;;11.49;58.27;100178.72;419440;23;896;-70
2022/04/15 00:31:03;;;;;;;344.35;134.95;;;;;;;11.45;58.43;100184.97;421422;23;1389;-70
2022/04/15 00:31:14;;;;;;;344.10;133.98;;;;;;;11.40;58.67;100183.41;421361;23;809;-70
2022/04/15 00:31:24;;;;;;;345.57;133.10;;;;;;;11.39;58.53;100182.56;419664;23;797;-70
2022/04/15 00:31:34;;;;;;;348.08;132.50;;;;;;;11.40;58.33;100183.41;417508;23;1281;-70
2022/04/15 00:31:45;;;;;;;347.87;132.70;;;;;;;11.40;58.78;100184.28;417730;23;847;-70
2022/04/15 00:31:55;;;;;;;347.75;132.60;;;;;;;11.43;58.60;100183.31;423601;23;1345;-70
2022/04/15 00:32:06;;;;;;;347.30;133.93;;;;;;;11.45;58.66;100189.34;417675;23;853;-70
2022/04/15 00:32:17;;;;;;;346.50;134.35;;;;;;;11.41;58.36;100180.75;419208;23;925;-70
2022/04/15 00:32:27;;;;;;;345.23;133.83;;;;;;;11.38;58.58;100186.09;419559;23;1351;-70
2022/04/15 00:32:38;;;;;;;346.07;134.30;;;;;;;11.34;58.45;100174.84;423543;23;1291;-70
2022/04/15 00:32:48;;;;;;;345.60;134.25;;;;;;;11.37;58.92;100181.75;419623;23;906;-70
2022/04/15 00:32:59;;;;;;;344.13;132.00;;;;;;;11.39;58.64;100187.81;417670;23;933;-70
2022/04/15 00:33:09;;;;;;;343.83;131.00;;;;;;;11.37;58.65;100184.38;417669;23;830;-71
2022/04/15 00:33:21;;;;;;;342.20;130.30;;;;;;;11.38;58.70;100180.00;417495;23;792;-70
2022/04/15 00:33:32;;;;;;;341.90;130.90;;;;;;;11.38;58.70;100185.25;419576;23;1477;-70
2022/04/15 00:33:42;;;;;;;340.40;130.93;;;;;;;11.41;58.59;100186.00;423606;23;1275;-70
2022/04/15 00:33:53;;;;;;;342.25;132.75;;;;;;;11.41;58.85;100179.88;419547;23;1110;-70
2022/04/15 00:34:03;;;;;;;344.53;134.63;;;;;;;11.40;58.55;100184.28;421661;23;934;-70
2022/04/15 00:34:14;;;;;;;347.77;133.63;;;;;;;11.41;58.70;100179.88;421705;23;855;-70
2022/04/15 00:34:24;;;;;;;348.53;131.70;;;;;;;11.45;58.64;100182.34;419715;23;859;-70
2022/04/15 00:34:35;;;;;;;348.40;129.30;;;;;;;11.42;58.46;100179.84;415637;23;870;-70
2022/04/15 00:34:45;;;;;;;346.17;129.17;;;;;;;11.43;58.39;100185.94;417539;23;1419;-70
2022/04/15 00:34:55;;;;;;;344.77;129.40;;;;;;;11.42;58.72;100181.59;419551;23;960;-70
2022/04/15 00:35:06;;;;;;;344.00;129.33;;;;;;;11.44;58.60;100190.28;419637;23;905;-70
2022/04/15 00:35:17;;;;;;;344.80;129.68;;;;;;;11.44;58.67;100191.13;423482;23;1455;-70
2022/04/15 00:35:27;;;;;;;345.20;130.20;;;;;;;11.41;58.41;100180.75;421551;23;1401;-69
2022/04/15 00:35:38;;;;;;;343.97;129.73;;;;;;;11.40;58.55;100188.66;417781;23;770;-70
2022/04/15 00:35:49;;;;;;;343.67;130.27;;;;;;;11.40;58.63;100186.91;419504;23;1211;-70
2022/04/15 00:35:59;;;;;;;342.02;128.57;;;;;;;11.40;58.58;100184.28;417393;23;880;-70
2022/04/15 00:36:09;;;;;;;344.27;130.17;;;;;;;11.40;58.53;100178.19;417679;23;939;-70
2022/04/15 00:36:20;;;;;;;344.80;130.37;;;;;;;11.42;58.65;100181.59;417587;23;1268;-70
2022/04/15 00:36:30;;;;;;;345.23;131.82;;;;;;;11.40;59.00;100179.03;419489;23;1375;-70
2022/04/15 00:36:40;;;;;;;344.97;131.53;;;;;;;11.42;58.78;100179.84;417541;23;715;-70
2022/04/15 00:36:51;;;;;;;343.10;130.07;;;;;;;11.46;59.17;100184.06;419783;23;1294;-70
2022/04/15 00:37:01;;;;;;;344.30;129.87;;;;;;;11.44;59.05;100183.25;421479;23;880;-69
2022/04/15 00:37:12;;;;;;;340.33;128.48;;;;;;;11.44;59.12;100178.03;421387;23;924;-69
2022/04/15 00:37:23;;;;;;;340.80;130.17;;;;;;;11.47;58.72;100180.53;421743;23;871;-70
2022/04/15 00:37:33;;;;;;;340.90;129.43;;;;;;;11.47;58.67;100180.53;417736;23;980;-70
2022/04/15 00:37:46;;;;;;;344.10;130.38;;;;;;;11.48;59.09;100178.75;419632;23;891;-70
2022/04/15 00:37:56;;;;;;;347.00;130.48;;;;;;;11.48;58.63;100181.38;419731;23;968;-70
2022/04/15 00:38:07;;;;;;;347.98;132.27;;;;;;;11.46;58.57;100177.97;417690;23;765;-70
2022/04/15 00:38:17;;;;;;;348.63;133.03;;;;;;;11.47;58.71;100183.16;415542;23;822;-70
2022/04/15 00:38:27;;;;;;;347.50;133.68;;;;;;;11.47;58.72;100177.06;417835;23;1036;-70
2022/04/15 00:38:38;;;;;;;345.90;134.43;;;;;;;11.33;57.99;100173.16;419540;23;1948;-70
2022/04/15 00:38:48;;;;;;;344.17;134.23;;;;;;;11.33;58.28;100180.16;417417;23;1563;-70
2022/04/15 00:38:59;;;;;;;345.03;133.07;;;;;;;11.33;58.76;100174.91;417592;23;1194;-70
2022/04/15 00:39:09;;;;;;;343.13;131.43;;;;;;;11.33;58.55;100178.38;415552;23;1118;-70
2022/04/15 00:39:19;;;;;;;343.10;127.57;;;;;;;11.35;58.21;100180.97;417625;23;1248;-70
2022/04/15 00:39:31;;;;;;;344.05;127.90;;;;;;;11.36;58.01;100176.56;417650;23;1208;-70
2022/04/15 00:39:45;;;;;;;344.90;128.55;;;;;;;11.38;58.15;100182.63;415839;23;863;-70
2022/04/15 00:39:55;;;;;;;340.88;130.13;;;;;;;11.36;58.63;100172.19;417788;23;848;-70
2022/04/15 00:40:08;;;;;;;341.80;131.35;;;;;;;11.37;58.40;100184.38;413732;23;901;-70
2022/04/15 00:40:19;;;;;;;343.38;130.27;;;;;;;11.38;58.71;100183.47;417545;23;1574;-70
2022/04/15 00:40:29;;;;;;;343.80;130.33;;;;;;;11.36;58.56;100177.44;415606;23;1357;-70
2022/04/15 00:40:40;;;;;;;343.45;131.38;;;;;;;11.38;58.72;100175.59;417648;23;979;-70
2022/04/15 00:40:50;;;;;;;343.30;131.17;;;;;;;11.39;57.85;100179.94;419179;23;1257;-70
2022/04/15 00:41:00;;;;;;;345.05;132.70;;;;;;;11.40;58.26;100179.03;417559;23;1119;-70
2022/04/15 00:41:15;;;;;;;347.23;133.57;;;;;;;11.42;58.10;100171.97;419680;23;1275;-70
2022/04/15 00:41:25;;;;;;;342.92;131.05;;;;;;;11.45;58.19;100177.09;419435;23;2115;-70
2022/04/15 00:41:36;;;;;;;341.27;128.80;;;;;;;11.43;58.24;100176.31;417787;23;1027;-70
2022/04/15 00:41:46;;;;;;;341.42;127.78;;;;;;;11.44;58.31;100175.41;419674;23;888;-70
2022/04/15 00:41:57;;;;;;;343.73;129.87;;;;;;;11.46;58.22;100173.56;419574;23;1285;-70
2022/04/15 00:42:09;;;;;;;344.60;131.18;;;;;;;11.47;58.40;100179.69;413751;23;884;-70
2022/04/15 00:42:22;;;;;;;344.15;132.30;;;;;;;11.48;58.41;100179.63;415637;23;841;-70
2022/04/15 00:42:32;;;;;;;342.10;130.77;;;;;;;11.48;58.08;100177.00;417662;23;855;-70
2022/04/15 00:42:43;;;;;;;340.87;128.03;;;;;;;11.48;57.94;100171.75;417539;23;1371;-70
2022/04/15 00:42:53;;;;;;;340.98;127.38;;;;;;;11.49;57.29;100183.09;417627;23;797;-70
2022/04/15 00:43:04;;;;;;;341.73;127.63;;;;;;;11.49;57.23;100183.97;415817;23;1351;-71
2022/04/15 00:43:14;;;;;;;346.60;130.50;;;;;;;11.48;57.15;100187.50;415738;23;820;-70
2022/04/15 00:43:25;;;;;;;346.90;130.45;;;;;;;11.45;57.10;100177.09;415598;23;837;-70
2022/04/15 00:43:35;;;;;;;345.13;128.27;;;;;;;11.45;57.06;100176.25;415756;23;778;-70
2022/04/15 00:43:45;;;;;;;342.67;129.07;;;;;;;11.46;56.98;100181.44;415750;23;1059;-71
2022/04/15 00:43:56;;;;;;;343.67;130.23;;;;;;;11.48;57.00;100179.63;417727;23;820;-70
2022/04/15 00:44:06;;;;;;;344.90;131.55;;;;;;;11.48;56.76;100182.25;421439;23;1400;-70
2022/04/15 00:44:17;;;;;;;344.60;130.33;;;;;;;11.50;56.74;100177.81;417611;23;1517;-70
2022/04/15 00:44:27;;;;;;;344.00;131.30;;;;;;;11.51;56.80;100179.50;417645;23;836;-70
2022/04/15 00:44:38;;;;;;;344.90;132.45;;;;;;;11.52;56.62;100180.38;417644;23;920;-70
2022/04/15 00:44:53;;;;;;;344.87;133.30;;;;;;;11.51;57.10;100182.13;415662;23;892;-70
2022/04/15 00:45:04;;;;;;;344.42;132.32;;;;;;;11.50;56.32;100179.56;415316;23;1152;-70
2022/04/15 00:45:14;;;;;;;343.38;131.10;;;;;;;11.49;56.72;100178.72;417942;23;870;-70
2022/04/15 00:45:25;;;;;;;342.40;129.57;;;;;;;11.50;56.66;100174.31;419661;23;836;-70
2022/04/15 00:45:35;;;;;;;341.90;128.18;;;;;;;11.49;56.97;100183.09;417217;23;1302;-70
2022/04/15 00:45:47;;;;;;;342.23;128.30;;;;;;;11.47;56.81;100184.91;415486;23;1308;-70
2022/04/15 00:46:09;;;;;;;343.27;130.82;;;;;;;11.48;57.61;100177.00;415755;23;873;-70
2022/04/15 00:46:19;;;;;;;336.60;127.10;;;;;;;11.48;57.37;100171.75;417554;23;762;-70
2022/04/15 00:46:30;;;;;;;335.98;125.93;;;;;;;11.49;57.19;100178.72;419556;23;1223;-70
2022/04/15 00:46:40;;;;;;;339.57;128.80;;;;;;;11.49;57.12;100176.09;419399;23;1205;-70
2022/04/15 00:46:51;;;;;;;342.13;131.15;;;;;;;11.47;57.52;100177.91;419756;23;884;-70
2022/04/15 00:47:01;;;;;;;342.63;131.60;;;;;;;11.48;57.91;100181.38;419599;23;1342;-70
2022/04/15 00:47:22;;;;;;;343.52;131.02;;;;;;;11.46;57.66;100178.81;419723;23;1023;-70
2022/04/15 00:47:50;;;;;;;345.95;131.13;;;;;;;11.45;57.85;100177.09;419608;23;889;-70
2022/04/15 00:48:01;;;;;;;343.98;130.20;;;;;;;11.44;57.54;100180.63;415462;23;943;-70
2022/04/15 00:48:11;;;;;;;344.67;130.82;;;;;;;11.46;57.88;100183.22;417505;23;1440;-70
2022/04/15 00:48:24;;;;;;;346.30;131.23;;;;;;;11.46;57.69;100178.81;417548;23;798;-70
2022/04/15 00:48:36;;;;;;;341.80;129.65;;;;;;;11.46;57.43;100178.81;419699;23;967;-71
2022/04/15 00:48:46;;;;;;;345.52;131.98;;;;;;;11.45;57.43;100177.09;417483;23;842;-71
2022/04/15 00:48:56;;;;;;;347.10;131.60;;;;;;;11.46;57.59;100181.44;417739;23;975;-71
2022/04/15 00:49:07;;;;;;;351.03;135.53;;;;;;;11.44;57.51;100180.63;417581;23;1133;-71
2022/04/15 00:49:17;;;;;;;347.23;134.57;;;;;;;11.44;57.47;100178.03;417501;23;1189;-71
2022/04/15 00:49:27;;;;;;;347.37;135.87;;;;;;;11.46;57.58;100175.34;415703;23;851;-71
2022/04/15 00:49:38;;;;;;;347.23;135.85;;;;;;;11.45;57.86;100182.34;413809;23;896;-71
2022/04/15 00:49:48;;;;;;;346.83;134.47;;;;;;;11.41;57.63;100177.28;415660;23;1209;-71
2022/04/15 00:49:59;;;;;;;345.08;132.40;;;;;;;11.41;57.91;100179.88;415751;23;1174;-71
2022/04/15 00:50:09;;;;;;;347.57;130.40;;;;;;;11.40;57.48;100173.78;417516;23;1298;-71
2022/04/15 00:50:25;;;;;;;349.58;132.05;;;;;;;11.43;57.65;100180.69;415687;23;820;-71
2022/04/15 00:50:35;;;;;;;346.10;132.65;;;;;;;11.44;57.62;100180.63;417892;23;1140;-71
2022/04/15 00:50:46;;;;;;;344.50;133.53;;;;;;;11.45;57.29;100184.13;417481;23;790;-71
2022/04/15 00:50:56;;;;;;;343.70;131.38;;;;;;;11.46;57.24;100172.72;419413;23;787;-70
2022/04/15 00:51:07;;;;;;;343.93;132.33;;;;;;;11.44;57.29;100182.41;419529;23;937;-70